FranceFixed distance
Luchon Aneto Trail - L'Ultra Lat
6–7 Jul2024
Distance
85km
Finishers
273238 men35 women
Winning time
6:48:30h
Median pace
7.83km/h
Pace distribution
273 finishers · 5.96–12.48 km/h · mean 8.01
Every finisher ran the same 85 km course, so these paces are directly comparable.
Histogram of finisher pace. 273 finishers ranged from 5.96 to 12.48 kilometres per hour, with a mean of 8.01 and a median of 7.83. The busiest band is 7.5 to 8.0 kilometres per hour, with 49 finishers.
Results
Ranks 201–250 of 273
| Rank | Runner | Time | Pace | Cat. | Placing |
|---|---|---|---|---|---|
| 200 | Fifou | 11:50:49h | 7.17 | M45 | 174th M · 32nd M45 |
| 202 | 11:50:50h | 7.17 | M40 | 176th M · 46th M40 | |
| 203 | les Baladins de Jardres | 11:51:27h | 7.17 | W40 | 27th F · 7th W40 |
| 203 | les Baladins de Jardres | 11:51:27h | 7.17 | M45 | 177th M · 33rd M45 |
| 205 | 11:51:49h | 7.17 | M35 | 178th M · 38th M35 | |
| 206 | 11:55:55h | 7.12 | M40 | 179th M · 47th M40 | |
| 207 | AMA | 11:56:07h | 7.12 | M23 | 180th M · 39th M23 |
| 208 | Raid Apte | 11:58:08h | 7.10 | M23 | 181st M · 40th M23 |
| 209 | Tarahumaras | 12:00:03h | 7.08 | M45 | 182nd M · 34th M45 |
| 210 | AC Gigouzac / St Germain | 12:00:05h | 7.08 | M50 | 183rd M · 16th M50 |
| 211 | Rujamar Atletismo Cuenca | 12:00:13h | 7.08 | M40 | 184th M · 48th M40 |
| 211 | Rujamar Atletismo Cuenca | 12:00:13h | 7.08 | M50 | 184th M · 17th M50 |
| 213 | Teamwilltrail | 12:00:28h | 7.08 | M45 | 186th M · 35th M45 |
| 214 | 12:00:45h | 7.08 | M23 | 187th M · 41st M23 | |
| 215 | Tours Raid Nature | 12:02:47h | 7.06 | M50 | 188th M · 18th M50 |
| 216 | 12:06:02h | 7.02 | M45 | 189th M · 36th M45 | |
| 217 | LA Funny Run Team | 12:07:19h | 7.01 | M35 | 190th M · 39th M35 |
| 218 | Donibane Garazi | 12:08:36h | 7.00 | M55 | 191st M · 5th M55 |
| 219 | *Saint-Lys | 12:09:06h | 7.00 | M45 | 192nd M · 37th M45 |
| 220 | L'Union Team Triathlon | 12:09:19h | 6.99 | M40 | 193rd M · 49th M40 |
| 221 | *Pompignan | 12:10:56h | 6.98 | M45 | 194th M · 38th M45 |
| 222 | 12:11:05h | 6.98 | W50 | 28th F · 2nd W50 | |
| 223 | Stade Olympique du Mai... | 12:11:27h | 6.97 | M45 | 195th M · 39th M45 |
| 224 | 12:13:08h | 6.96 | M45 | 196th M · 40th M45 | |
| 225 | 12:13:46h | 6.95 | W40 | 29th F · 8th W40 | |
| 226 | 12:15:12h | 6.94 | M45 | 197th M · 41st M45 | |
| 227 | les Fous’Les Sortoises | 12:18:03h | 6.91 | W60 | 30th F · 1st W60 |
| 227 | les Fou'Les Sortoises | 12:18:03h | 6.91 | M45 | 198th M · 42nd M45 |
| 229 | Defi Outdoor | 12:18:13h | 6.91 | M45 | 199th M · 43rd M45 |
| 230 | 12:19:27h | 6.90 | M23 | 200th M · 42nd M23 | |
| 231 | *Le Faget | 12:21:29h | 6.88 | M50 | 201st M · 19th M50 |
| 232 | 12:22:15h | 6.87 | W23 | 31st F · 9th W23 | |
| 233 | Lacroix Running Team | 12:22:25h | 6.87 | M35 | 202nd M · 40th M35 |
| 234 | Lucon Jogging Nature | 12:24:23h | 6.85 | M40 | 203rd M · 50th M40 |
| 235 | Toulouse Triathlon | 12:25:35h | 6.84 | M40 | 204th M · 51st M40 |
| 236 | Canejan Athletisme | 12:25:47h | 6.84 | M55 | 205th M · 6th M55 |
| 237 | Team Lilou Bel’Ange | 12:26:31h | 6.83 | M35 | 206th M · 41st M35 |
| 238 | Rame | 12:33:37h | 6.77 | M50 | 207th M · 20th M50 |
| 239 | Innov'ATM | 12:34:51h | 6.76 | M50 | 208th M · 21st M50 |
| 240 | Comminges Triathlon | 12:35:55h | 6.75 | W35 | 32nd F · 6th W35 |
| 241 | *Gratentour | 12:35:57h | 6.75 | M40 | 209th M · 52nd M40 |
| 242 | Tracks Athle | 12:38:27h | 6.72 | M35 | 210th M · 42nd M35 |
| 242 | Trail & Genoux Cagneux | 12:38:27h | 6.72 | M35 | 210th M · 42nd M35 |
| 244 | 12:43:02h | 6.68 | M40 | 212th M · 53rd M40 | |
| 245 | 12:48:54h | 6.63 | M40 | 213th M · 54th M40 | |
| 246 | 12:48:55h | 6.63 | M40 | 214th M · 55th M40 | |
| 247 | 12:51:42h | 6.61 | M65 | 215th M · 1st M65 | |
| 248 | 12:51:43h | 6.61 | W45 | 33rd F · 6th W45 | |
| 249 | Patatrail | 12:51:52h | 6.61 | M65 | 216th M · 2nd M65 |
| 250 | 12:52:17h | 6.60 | M55 | 217th M · 7th M55 |
- 200Fifou174th M · 32nd M45Time11:50:49hPace7.17Cat.M45
- 202176th M · 46th M40Time11:50:50hPace7.17Cat.M40
- 203les Baladins de Jardres27th F · 7th W40Time11:51:27hPace7.17Cat.W40
- 203les Baladins de Jardres177th M · 33rd M45Time11:51:27hPace7.17Cat.M45
- 205178th M · 38th M35Time11:51:49hPace7.17Cat.M35
- 206179th M · 47th M40Time11:55:55hPace7.12Cat.M40
- 207AMA180th M · 39th M23Time11:56:07hPace7.12Cat.M23
- 208Raid Apte181st M · 40th M23Time11:58:08hPace7.10Cat.M23
- 209Tarahumaras182nd M · 34th M45Time12:00:03hPace7.08Cat.M45
- 210AC Gigouzac / St Germain183rd M · 16th M50Time12:00:05hPace7.08Cat.M50
- 211Rujamar Atletismo Cuenca184th M · 48th M40Time12:00:13hPace7.08Cat.M40
- 211Rujamar Atletismo Cuenca184th M · 17th M50Time12:00:13hPace7.08Cat.M50
- 213Teamwilltrail186th M · 35th M45Time12:00:28hPace7.08Cat.M45
- 214187th M · 41st M23Time12:00:45hPace7.08Cat.M23
- 215Tours Raid Nature188th M · 18th M50Time12:02:47hPace7.06Cat.M50
- 216189th M · 36th M45Time12:06:02hPace7.02Cat.M45
- 217LA Funny Run Team190th M · 39th M35Time12:07:19hPace7.01Cat.M35
- 218Donibane Garazi191st M · 5th M55Time12:08:36hPace7.00Cat.M55
- 219*Saint-Lys192nd M · 37th M45Time12:09:06hPace7.00Cat.M45
- 220L'Union Team Triathlon193rd M · 49th M40Time12:09:19hPace6.99Cat.M40
- 221*Pompignan194th M · 38th M45Time12:10:56hPace6.98Cat.M45
- 22228th F · 2nd W50Time12:11:05hPace6.98Cat.W50
- 223Stade Olympique du Mai...195th M · 39th M45Time12:11:27hPace6.97Cat.M45
- 224196th M · 40th M45Time12:13:08hPace6.96Cat.M45
- 22529th F · 8th W40Time12:13:46hPace6.95Cat.W40
- 226197th M · 41st M45Time12:15:12hPace6.94Cat.M45
- 227les Fous’Les Sortoises30th F · 1st W60Time12:18:03hPace6.91Cat.W60
- 227les Fou'Les Sortoises198th M · 42nd M45Time12:18:03hPace6.91Cat.M45
- 229Defi Outdoor199th M · 43rd M45Time12:18:13hPace6.91Cat.M45
- 230200th M · 42nd M23Time12:19:27hPace6.90Cat.M23
- 231*Le Faget201st M · 19th M50Time12:21:29hPace6.88Cat.M50
- 23231st F · 9th W23Time12:22:15hPace6.87Cat.W23
- 233Lacroix Running Team202nd M · 40th M35Time12:22:25hPace6.87Cat.M35
- 234Lucon Jogging Nature203rd M · 50th M40Time12:24:23hPace6.85Cat.M40
- 235Toulouse Triathlon204th M · 51st M40Time12:25:35hPace6.84Cat.M40
- 236Canejan Athletisme205th M · 6th M55Time12:25:47hPace6.84Cat.M55
- 237Team Lilou Bel’Ange206th M · 41st M35Time12:26:31hPace6.83Cat.M35
- 238Rame207th M · 20th M50Time12:33:37hPace6.77Cat.M50
- 239Innov'ATM208th M · 21st M50Time12:34:51hPace6.76Cat.M50
- 240Comminges Triathlon32nd F · 6th W35Time12:35:55hPace6.75Cat.W35
- 241*Gratentour209th M · 52nd M40Time12:35:57hPace6.75Cat.M40
- 242Tracks Athle210th M · 42nd M35Time12:38:27hPace6.72Cat.M35
- 242Trail & Genoux Cagneux210th M · 42nd M35Time12:38:27hPace6.72Cat.M35
- 244212th M · 53rd M40Time12:43:02hPace6.68Cat.M40
- 245213th M · 54th M40Time12:48:54hPace6.63Cat.M40
- 246214th M · 55th M40Time12:48:55hPace6.63Cat.M40
- 247215th M · 1st M65Time12:51:42hPace6.61Cat.M65
- 24833rd F · 6th W45Time12:51:43hPace6.61Cat.W45
- 249Patatrail216th M · 2nd M65Time12:51:52hPace6.61Cat.M65
- 250217th M · 7th M55Time12:52:17hPace6.60Cat.M55
Showing ranks 201–250 of 273